createdAt,value
2017-11-27T00:01:55.829Z,5.19
2017-11-27T00:04:23.293Z,5.25
2017-11-27T00:06:50.750Z,5.25
2017-11-27T00:09:18.210Z,5.18
2017-11-27T00:11:45.698Z,5.56
2017-11-27T00:14:13.144Z,5.40
2017-11-27T00:16:40.610Z,5.15
2017-11-27T00:19:08.061Z,5.47
2017-11-27T00:21:35.553Z,5.33
2017-11-27T00:24:03.005Z,5.29
2017-11-27T00:26:30.483Z,5.21
2017-11-27T00:28:57.935Z,5.21
2017-11-27T00:31:25.417Z,5.24
2017-11-27T00:33:52.994Z,5.19
2017-11-27T00:36:20.472Z,5.13
2017-11-27T00:38:47.920Z,5.17
2017-11-27T00:41:15.396Z,5.17
2017-11-27T00:43:42.902Z,5.19
2017-11-27T00:46:10.346Z,5.23
2017-11-27T00:48:37.817Z,5.18
2017-11-27T00:51:05.278Z,5.31
2017-11-27T00:53:32.745Z,5.07
2017-11-27T00:56:00.188Z,5.14
2017-11-27T00:58:27.656Z,5.03
2017-11-27T01:00:55.111Z,5.06
2017-11-27T01:03:22.588Z,5.01
2017-11-27T01:05:50.181Z,5.02
2017-11-27T01:08:17.649Z,5.15
2017-11-27T01:10:45.097Z,5.17
2017-11-27T01:13:12.585Z,5.11
2017-11-27T01:15:40.041Z,5.09
2017-11-27T01:18:07.644Z,5.13
2017-11-27T01:20:35.136Z,5.10
2017-11-27T01:23:02.717Z,5.07
2017-11-27T01:25:30.211Z,5.09
2017-11-27T01:27:57.727Z,5.08
2017-11-27T01:30:25.189Z,5.11
2017-11-27T01:32:52.633Z,5.07
2017-11-27T01:35:20.111Z,5.08
2017-11-27T01:37:47.571Z,5.09
2017-11-27T01:40:15.037Z,5.06
2017-11-27T01:42:42.587Z,5.14
2017-11-27T01:45:10.056Z,5.22
2017-11-27T01:47:37.508Z,5.19
2017-11-27T01:50:04.977Z,5.07
2017-11-27T01:52:32.490Z,5.10
2017-11-27T01:54:59.979Z,5.09
2017-11-27T01:57:27.429Z,5.08
2017-11-27T01:59:54.905Z,4.94
2017-11-27T02:02:22.442Z,4.98
2017-11-27T02:04:49.886Z,4.99
2017-11-27T02:07:17.458Z,4.91
2017-11-27T02:09:44.903Z,4.86
2017-11-27T02:12:12.370Z,4.89
2017-11-27T02:14:39.812Z,4.90
2017-11-27T02:17:07.325Z,4.98
2017-11-27T02:19:34.835Z,4.97
2017-11-27T02:22:02.287Z,5.03
2017-11-27T02:24:29.848Z,5.01
2017-11-27T02:26:57.306Z,4.86
2017-11-27T02:29:24.769Z,4.95
2017-11-27T02:31:52.211Z,4.97
2017-11-27T02:34:19.788Z,4.99
2017-11-27T02:36:47.232Z,4.94
2017-11-27T02:39:14.699Z,4.81
2017-11-27T02:41:42.158Z,4.78
2017-11-27T02:44:09.644Z,4.73
2017-11-27T02:46:37.088Z,4.74
2017-11-27T02:49:04.612Z,4.82
2017-11-27T02:51:32.080Z,4.77
2017-11-27T02:53:59.576Z,4.72
2017-11-27T02:56:27.024Z,4.72
2017-11-27T02:58:54.469Z,4.69
2017-11-27T03:01:21.997Z,4.72
2017-11-27T03:03:49.510Z,4.57
2017-11-27T03:06:17.043Z,4.57
2017-11-27T03:08:44.494Z,4.65
2017-11-27T03:11:11.957Z,4.61
2017-11-27T03:13:39.411Z,4.49
2017-11-27T03:16:06.888Z,4.53
2017-11-27T03:18:34.352Z,4.47
2017-11-27T03:21:01.886Z,4.58
2017-11-27T03:23:29.341Z,4.42
2017-11-27T03:25:56.804Z,4.33
2017-11-27T03:28:24.248Z,4.43
2017-11-27T03:30:51.717Z,4.46
2017-11-27T03:33:19.175Z,4.49
2017-11-27T03:35:46.650Z,4.40
2017-11-27T03:38:14.114Z,4.28
2017-11-27T03:40:41.635Z,4.37
2017-11-27T03:43:09.101Z,4.28
2017-11-27T03:45:36.553Z,4.21
2017-11-27T03:48:04.012Z,4.22
2017-11-27T03:50:31.544Z,4.10
2017-11-27T03:52:59.108Z,4.21
2017-11-27T03:55:26.548Z,4.29
2017-11-27T03:57:54.013Z,4.28
2017-11-27T04:00:21.456Z,4.31
2017-11-27T04:02:48.927Z,4.40
2017-11-27T04:05:16.412Z,4.30
2017-11-27T04:07:43.945Z,4.29
2017-11-27T04:10:11.503Z,4.20
2017-11-27T04:12:38.972Z,4.16
2017-11-27T04:15:06.479Z,4.30
2017-11-27T04:17:33.978Z,4.25
2017-11-27T04:20:01.449Z,4.24
2017-11-27T04:22:28.987Z,4.26
2017-11-27T04:24:56.518Z,4.25
2017-11-27T04:27:24.292Z,4.14
2017-11-27T04:29:51.876Z,4.12
2017-11-27T04:32:19.332Z,4.14
2017-11-27T04:34:46.804Z,4.09
2017-11-27T04:37:14.250Z,4.07
2017-11-27T04:39:41.808Z,4.01
2017-11-27T04:42:09.279Z,4.04
2017-11-27T04:44:36.729Z,4.27
2017-11-27T04:47:04.198Z,4.47
2017-11-27T04:49:31.688Z,4.16
2017-11-27T04:51:59.162Z,4.43
2017-11-27T04:54:26.667Z,4.33
2017-11-27T04:56:54.208Z,4.28
2017-11-27T04:59:21.678Z,4.24
2017-11-27T05:01:49.161Z,4.18
2017-11-27T05:04:16.622Z,4.25
2017-11-27T05:06:44.069Z,4.18
2017-11-27T05:09:11.540Z,4.00
2017-11-27T05:11:38.998Z,4.11
2017-11-27T05:14:06.479Z,4.09
2017-11-27T05:16:33.933Z,4.13
2017-11-27T05:19:01.401Z,4.27
2017-11-27T05:21:28.858Z,4.24
2017-11-27T05:23:56.320Z,4.17
2017-11-27T05:26:23.778Z,4.16
2017-11-27T05:28:51.261Z,4.24
2017-11-27T05:31:18.742Z,4.21
2017-11-27T05:33:46.197Z,4.24
2017-11-27T05:36:13.675Z,4.16
2017-11-27T05:38:41.157Z,4.20
2017-11-27T05:41:08.747Z,4.23
2017-11-27T05:43:36.191Z,4.30
2017-11-27T05:46:03.694Z,4.27
2017-11-27T05:48:31.136Z,4.32
2017-11-27T05:50:58.601Z,4.28
2017-11-27T05:53:26.058Z,4.19
2017-11-27T05:55:53.537Z,4.63
2017-11-27T05:58:20.994Z,4.32
2017-11-27T06:00:48.485Z,4.45
2017-11-27T06:03:15.946Z,4.31
2017-11-27T06:05:43.440Z,4.27
2017-11-27T06:08:10.926Z,4.37
2017-11-27T06:10:38.415Z,4.23
2017-11-27T06:13:05.913Z,4.37
2017-11-27T06:15:33.577Z,4.28
2017-11-27T06:18:01.060Z,4.26
2017-11-27T06:20:28.525Z,4.26
2017-11-27T06:22:55.993Z,4.34
2017-11-27T06:25:23.449Z,4.14
2017-11-27T06:27:50.927Z,4.08
2017-11-27T06:30:18.465Z,4.29
2017-11-27T06:32:45.928Z,4.20
2017-11-27T06:35:13.385Z,4.13
2017-11-27T06:37:40.852Z,3.98
2017-11-27T06:40:08.311Z,4.17
2017-11-27T06:42:35.767Z,4.06
2017-11-27T06:45:03.238Z,4.14
2017-11-27T06:47:30.693Z,4.20
2017-11-27T06:49:58.172Z,4.25
2017-11-27T06:52:25.650Z,4.17
2017-11-27T06:54:53.140Z,4.15
2017-11-27T06:57:20.610Z,4.17
2017-11-27T06:59:48.138Z,4.16
2017-11-27T07:02:15.599Z,4.20
2017-11-27T07:04:43.170Z,4.19
2017-11-27T07:07:10.639Z,4.11
2017-11-27T07:09:38.126Z,4.21
2017-11-27T07:12:05.586Z,4.21
2017-11-27T07:14:33.078Z,4.27
2017-11-27T07:17:00.549Z,4.30
2017-11-27T07:19:27.988Z,4.28
2017-11-27T07:21:55.572Z,4.11
2017-11-27T07:24:23.086Z,4.23
2017-11-27T07:26:50.553Z,4.28
2017-11-27T07:29:18.000Z,4.16
2017-11-27T07:31:45.519Z,4.20
2017-11-27T07:34:13.054Z,4.33
2017-11-27T07:36:40.619Z,4.52
2017-11-27T07:39:13.672Z,4.47
2017-11-27T07:41:41.146Z,4.59
2017-11-27T07:44:08.590Z,4.66
2017-11-27T07:46:36.081Z,4.73
2017-11-27T07:49:03.554Z,4.81
2017-11-27T07:51:31.097Z,4.86
2017-11-27T07:53:58.580Z,4.94
2017-11-27T07:56:26.100Z,5.04
2017-11-27T07:58:53.581Z,5.06
2017-11-27T08:01:21.050Z,5.00
2017-11-27T08:03:48.532Z,5.18
2017-11-27T08:06:15.984Z,5.21
2017-11-27T08:08:43.460Z,5.16
2017-11-27T08:11:10.901Z,5.26
2017-11-27T08:13:38.397Z,5.52
2017-11-27T08:16:05.864Z,5.27
2017-11-27T08:18:33.349Z,5.32
2017-11-27T08:21:00.879Z,5.51
2017-11-27T08:23:28.436Z,5.36
2017-11-27T08:25:55.937Z,5.41
2017-11-27T08:28:23.393Z,5.55
2017-11-27T08:30:50.886Z,5.52
2017-11-27T08:33:18.336Z,5.55
2017-11-27T08:35:45.805Z,5.49
2017-11-27T08:38:13.263Z,5.60
2017-11-27T08:40:40.826Z,5.59
2017-11-27T08:43:08.283Z,5.59
2017-11-27T08:45:35.862Z,5.66
2017-11-27T08:48:03.344Z,5.55
2017-11-27T08:50:30.867Z,5.82
2017-11-27T08:52:58.415Z,5.75
2017-11-27T08:55:25.872Z,5.73
2017-11-27T08:57:53.335Z,5.85
2017-11-27T09:00:20.792Z,5.80
2017-11-27T09:02:48.279Z,5.88
2017-11-27T09:05:15.811Z,5.97
2017-11-27T09:07:43.298Z,6.06
2017-11-27T09:10:10.764Z,5.82
2017-11-27T09:12:38.244Z,5.94
2017-11-27T09:15:05.751Z,5.99
2017-11-27T09:17:33.200Z,6.07
2017-11-27T09:20:00.673Z,6.06
2017-11-27T09:22:28.116Z,6.11
2017-11-27T09:24:55.591Z,6.13
2017-11-27T09:27:23.115Z,6.20
2017-11-27T09:29:50.577Z,6.31
2017-11-27T09:32:18.040Z,6.30
2017-11-27T09:34:45.522Z,6.24
2017-11-27T09:37:12.965Z,6.33
2017-11-27T09:39:40.500Z,6.26
2017-11-27T09:42:07.956Z,6.21
2017-11-27T09:44:35.439Z,6.32
2017-11-27T09:47:02.892Z,6.40
2017-11-27T09:49:30.380Z,6.42
2017-11-27T09:51:57.850Z,6.36
2017-11-27T09:54:25.306Z,6.32
2017-11-27T09:56:52.773Z,6.35
2017-11-27T09:59:20.242Z,6.42
2017-11-27T10:01:47.722Z,6.25
2017-11-27T10:04:15.175Z,6.40
2017-11-27T10:06:42.653Z,6.36
2017-11-27T10:09:10.180Z,6.46
2017-11-27T10:11:37.740Z,6.39
2017-11-27T10:14:05.204Z,6.37
2017-11-27T10:16:32.690Z,6.32
2017-11-27T10:19:00.136Z,6.41
2017-11-27T10:21:27.682Z,6.50
2017-11-27T10:23:55.222Z,6.49
2017-11-27T10:26:22.687Z,6.50
2017-11-27T10:28:50.152Z,6.52
2017-11-27T10:31:17.592Z,6.53
2017-11-27T10:33:45.055Z,6.50
2017-11-27T10:36:12.535Z,6.57
2017-11-27T10:38:40.002Z,6.59
2017-11-27T10:41:07.474Z,6.56
2017-11-27T10:43:34.948Z,6.55
2017-11-27T10:46:02.397Z,6.52
2017-11-27T10:48:29.871Z,6.56
2017-11-27T10:50:57.320Z,6.64
2017-11-27T10:53:24.766Z,6.60
2017-11-27T10:55:52.246Z,6.65
2017-11-27T10:58:19.715Z,6.63
2017-11-27T11:00:52.957Z,6.66
2017-11-27T11:03:20.468Z,6.68
2017-11-27T11:05:47.946Z,6.67
2017-11-27T11:08:15.484Z,6.68
2017-11-27T11:10:43.043Z,6.76
2017-11-27T11:13:10.526Z,6.76
2017-11-27T11:15:38.024Z,6.95
2017-11-27T11:18:05.515Z,6.81
2017-11-27T11:20:32.980Z,6.75
2017-11-27T11:23:00.461Z,6.86
2017-11-27T11:25:27.940Z,6.97
2017-11-27T11:27:55.444Z,7.01
2017-11-27T11:30:22.899Z,6.92
2017-11-27T11:32:50.369Z,7.07
2017-11-27T11:35:17.825Z,6.93
2017-11-27T11:37:45.381Z,7.07
2017-11-27T11:40:12.837Z,6.89
2017-11-27T11:42:40.307Z,6.92
2017-11-27T11:45:07.753Z,6.92
2017-11-27T11:47:35.302Z,6.82
2017-11-27T11:50:02.748Z,6.85
2017-11-27T11:52:30.217Z,6.91
2017-11-27T11:54:57.657Z,6.97
2017-11-27T11:57:25.126Z,6.98
2017-11-27T11:59:52.568Z,6.87
2017-11-27T12:02:20.178Z,6.90
2017-11-27T12:04:47.618Z,6.98
2017-11-27T12:07:15.080Z,6.96
2017-11-27T12:09:42.549Z,6.97
2017-11-27T12:12:10.065Z,6.96
2017-11-27T12:14:37.564Z,6.95
2017-11-27T12:17:05.039Z,7.01
2017-11-27T12:19:32.504Z,6.89
2017-11-27T12:21:59.951Z,6.92
2017-11-27T12:24:27.435Z,6.89
2017-11-27T12:26:54.893Z,6.86
2017-11-27T12:29:22.380Z,7.03
2017-11-27T12:31:49.824Z,6.81
2017-11-27T12:34:17.288Z,6.88
2017-11-27T12:36:44.740Z,6.87
2017-11-27T12:39:12.209Z,7.09
2017-11-27T12:41:39.683Z,7.05
2017-11-27T12:44:07.132Z,7.06
2017-11-27T12:46:34.600Z,7.17
2017-11-27T12:49:02.053Z,7.07
2017-11-27T12:51:29.540Z,7.10
2017-11-27T12:53:57.021Z,7.19
2017-11-27T12:56:24.487Z,7.24
2017-11-27T12:58:51.937Z,7.07
2017-11-27T13:01:19.501Z,7.24
2017-11-27T13:03:46.962Z,7.13
2017-11-27T13:06:14.459Z,7.21
2017-11-27T13:08:41.914Z,7.22
2017-11-27T13:11:09.395Z,7.12
2017-11-27T13:13:36.840Z,7.18
2017-11-27T13:16:04.304Z,7.11
2017-11-27T13:18:31.790Z,7.14
2017-11-27T13:20:59.265Z,7.17
2017-11-27T13:23:26.734Z,7.14
2017-11-27T13:25:54.194Z,7.13
2017-11-27T13:28:21.738Z,7.23
2017-11-27T13:30:49.198Z,7.23
2017-11-27T13:33:16.664Z,7.19
2017-11-27T13:35:44.201Z,7.26
2017-11-27T13:38:11.713Z,7.20
2017-11-27T13:40:39.173Z,7.13
2017-11-27T13:43:06.657Z,7.06
2017-11-27T13:45:34.829Z,7.09
2017-11-27T13:48:02.292Z,7.07
2017-11-27T13:50:29.751Z,7.13
2017-11-27T13:52:57.228Z,7.17
2017-11-27T13:55:24.686Z,7.07
2017-11-27T13:57:52.461Z,7.17
2017-11-27T14:00:19.925Z,7.18
2017-11-27T14:02:47.378Z,7.00
2017-11-27T14:05:14.865Z,7.08
2017-11-27T14:07:42.331Z,7.07
2017-11-27T14:10:09.814Z,7.02
2017-11-27T14:12:37.284Z,7.11
2017-11-27T14:15:04.740Z,7.08
2017-11-27T14:17:32.184Z,7.14
2017-11-27T14:19:59.711Z,7.10
2017-11-27T14:22:27.172Z,7.03
2017-11-27T14:24:54.649Z,7.01
2017-11-27T14:27:22.158Z,6.91
2017-11-27T14:29:49.643Z,6.92
2017-11-27T14:32:17.091Z,6.91
2017-11-27T14:34:44.571Z,7.00
2017-11-27T14:37:12.046Z,7.06
2017-11-27T14:39:39.661Z,7.06
2017-11-27T14:42:07.179Z,7.01
2017-11-27T14:44:34.640Z,6.91
2017-11-27T14:47:02.115Z,7.01
2017-11-27T14:49:29.578Z,6.98
2017-11-27T14:51:57.060Z,6.95
2017-11-27T14:54:24.739Z,6.94
2017-11-27T14:56:52.321Z,6.91
2017-11-27T14:59:19.884Z,7.06
2017-11-27T15:01:47.358Z,6.95
2017-11-27T15:04:14.824Z,6.96
2017-11-27T15:06:42.295Z,6.95
2017-11-27T15:09:09.752Z,6.87
2017-11-27T15:11:37.374Z,6.82
2017-11-27T15:14:04.921Z,6.87
2017-11-27T15:16:32.409Z,6.77
2017-11-27T15:18:59.932Z,6.86
2017-11-27T15:21:27.412Z,6.84
2017-11-27T15:23:54.912Z,6.86
2017-11-27T15:26:22.378Z,6.80
2017-11-27T15:28:49.852Z,6.92
2017-11-27T15:31:17.344Z,6.86
2017-11-27T15:33:44.816Z,6.73
2017-11-27T15:36:12.279Z,6.78
2017-11-27T15:38:39.758Z,6.84
2017-11-27T15:41:07.272Z,6.81
2017-11-27T15:43:34.757Z,6.83
2017-11-27T15:46:02.220Z,6.76
2017-11-27T15:48:29.700Z,6.88
2017-11-27T15:50:57.161Z,6.77
2017-11-27T15:53:24.633Z,6.71
2017-11-27T15:55:52.152Z,6.80
2017-11-27T15:58:19.633Z,6.69
2017-11-27T16:00:47.086Z,6.83
2017-11-27T16:03:14.543Z,6.63
2017-11-27T16:05:42.029Z,6.75
2017-11-27T16:08:09.516Z,6.83
2017-11-27T16:10:37.004Z,6.72
2017-11-27T16:13:04.458Z,6.82
2017-11-27T16:15:31.924Z,6.68
2017-11-27T16:17:59.375Z,6.67
2017-11-27T16:20:26.846Z,6.65
2017-11-27T16:22:54.311Z,6.80
2017-11-27T16:25:21.876Z,6.71
2017-11-27T16:27:49.332Z,6.72
2017-11-27T16:30:16.838Z,6.74
2017-11-27T16:32:44.310Z,6.62
2017-11-27T16:35:11.774Z,6.67
2017-11-27T16:37:39.245Z,6.76
2017-11-27T16:40:06.706Z,6.77
2017-11-27T16:42:34.225Z,6.68
2017-11-27T16:45:01.745Z,6.64
2017-11-27T16:47:29.212Z,6.64
2017-11-27T16:49:56.660Z,6.66
2017-11-27T16:52:24.136Z,6.67
2017-11-27T16:54:51.634Z,6.60
2017-11-27T16:57:19.163Z,6.55
2017-11-27T16:59:46.652Z,6.66
2017-11-27T17:02:14.105Z,6.66
2017-11-27T17:04:41.592Z,6.63
2017-11-27T17:07:09.063Z,6.65
2017-11-27T17:09:36.547Z,6.60
2017-11-27T17:12:04.086Z,6.79
2017-11-27T17:14:32.414Z,6.67
2017-11-27T17:16:59.853Z,6.68
2017-11-27T17:19:27.326Z,6.66
2017-11-27T17:21:54.770Z,6.60
2017-11-27T17:24:22.246Z,6.60
2017-11-27T17:26:49.738Z,6.80
2017-11-27T17:29:17.221Z,6.61
2017-11-27T17:31:44.695Z,6.62
2017-11-27T17:34:12.178Z,6.55
2017-11-27T17:36:39.624Z,6.52
2017-11-27T17:39:07.065Z,6.56
2017-11-27T17:41:34.555Z,6.64
2017-11-27T17:44:02.019Z,6.63
2017-11-27T17:46:29.521Z,6.67
2017-11-27T17:48:56.960Z,6.82
2017-11-27T17:51:25.077Z,6.63
2017-11-27T17:53:52.540Z,6.53
2017-11-27T17:56:20.019Z,6.74
2017-11-27T17:58:47.485Z,6.76
2017-11-27T18:01:14.990Z,6.67
2017-11-27T18:03:42.457Z,6.71
2017-11-27T18:06:09.940Z,6.79
2017-11-27T18:08:37.386Z,6.72
2017-11-27T18:11:04.884Z,6.66
2017-11-27T18:13:32.338Z,6.72
2017-11-27T18:15:59.804Z,6.72
2017-11-27T18:18:27.324Z,6.77
2017-11-27T18:20:54.794Z,6.69
2017-11-27T18:23:22.273Z,6.72
2017-11-27T18:25:49.750Z,6.72
2017-11-27T18:28:17.221Z,6.73
2017-11-27T18:30:44.680Z,6.71
2017-11-27T18:33:12.224Z,6.73
2017-11-27T18:35:39.705Z,6.73
2017-11-27T18:38:07.178Z,6.78
2017-11-27T18:40:34.667Z,6.90
2017-11-27T18:43:02.140Z,6.85
2017-11-27T18:45:29.588Z,6.90
2017-11-27T18:47:57.064Z,6.89
2017-11-27T18:50:24.519Z,7.00
2017-11-27T18:52:51.966Z,6.86
2017-11-27T18:55:19.445Z,7.02
2017-11-27T18:57:46.908Z,6.92
2017-11-27T19:00:14.391Z,7.00
2017-11-27T19:02:41.859Z,6.91
2017-11-27T19:05:09.324Z,6.92
2017-11-27T19:07:36.774Z,6.98
2017-11-27T19:10:04.257Z,7.03
2017-11-27T19:12:31.710Z,6.93
2017-11-27T19:14:59.217Z,7.10
2017-11-27T19:17:26.681Z,6.97
2017-11-27T19:19:54.145Z,6.97
2017-11-27T19:22:21.625Z,7.07
2017-11-27T19:24:49.083Z,7.07
2017-11-27T19:27:16.570Z,6.97
2017-11-27T19:29:44.013Z,7.00
2017-11-27T19:32:11.482Z,6.99
2017-11-27T19:34:38.942Z,6.96
2017-11-27T19:37:06.417Z,7.16
2017-11-27T19:39:33.871Z,7.02
2017-11-27T19:42:01.384Z,7.07
2017-11-27T19:44:28.832Z,7.04
2017-11-27T19:46:56.272Z,7.16
2017-11-27T19:49:23.737Z,7.04
2017-11-27T19:51:51.199Z,6.98
2017-11-27T19:54:18.678Z,7.05
2017-11-27T19:56:46.128Z,7.06
2017-11-27T19:59:13.641Z,7.07
2017-11-27T20:01:41.124Z,7.11
2017-11-27T20:04:08.610Z,7.17
2017-11-27T20:06:36.067Z,7.09
2017-11-27T20:09:03.536Z,7.03
2017-11-27T20:11:30.994Z,7.00
2017-11-27T20:13:58.480Z,7.11
2017-11-27T20:16:25.946Z,6.93
2017-11-27T20:18:53.408Z,6.95
2017-11-27T20:21:20.887Z,6.96
2017-11-27T20:23:48.383Z,6.98
2017-11-27T20:26:15.849Z,6.96
2017-11-27T20:28:43.297Z,6.86
2017-11-27T20:31:10.764Z,6.98
2017-11-27T20:33:38.214Z,6.95
2017-11-27T20:36:05.684Z,6.89
2017-11-27T20:38:33.161Z,6.82
2017-11-27T20:41:00.624Z,6.82
2017-11-27T20:43:28.248Z,7.04
2017-11-27T20:45:55.718Z,6.92
2017-11-27T20:48:23.183Z,6.90
2017-11-27T20:50:50.654Z,6.83
2017-11-27T20:53:18.097Z,6.87
2017-11-27T20:55:45.579Z,6.96
2017-11-27T20:58:13.021Z,7.01
2017-11-27T21:00:40.513Z,6.87
2017-11-27T21:03:07.968Z,6.93
2017-11-27T21:05:36.274Z,7.06
2017-11-27T21:08:03.741Z,6.99
2017-11-27T21:10:31.187Z,7.08
2017-11-27T21:12:58.672Z,6.96
2017-11-27T21:15:26.116Z,7.04
2017-11-27T21:17:53.594Z,6.97
2017-11-27T21:20:21.060Z,7.05
2017-11-27T21:22:48.541Z,6.94
2017-11-27T21:25:16.073Z,6.97
2017-11-27T21:27:43.641Z,6.94
2017-11-27T21:30:11.108Z,7.04
2017-11-27T21:32:38.579Z,7.10
2017-11-27T21:35:06.060Z,7.14
2017-11-27T21:37:33.532Z,7.03
2017-11-27T21:40:00.997Z,7.08
2017-11-27T21:42:28.448Z,7.15
2017-11-27T21:44:55.945Z,7.13
2017-11-27T21:47:23.399Z,7.31
2017-11-27T21:49:50.869Z,7.30
2017-11-27T21:52:18.313Z,7.17
2017-11-27T21:54:45.771Z,7.20
2017-11-27T21:57:13.213Z,7.32
2017-11-27T21:59:40.697Z,7.35
2017-11-27T22:02:08.179Z,7.35
2017-11-27T22:04:35.644Z,7.24
2017-11-27T22:07:03.117Z,7.38
2017-11-27T22:09:30.603Z,7.16
2017-11-27T22:11:58.060Z,7.26
2017-11-27T22:14:25.557Z,7.38
2017-11-27T22:16:53.008Z,7.17
2017-11-27T22:19:20.447Z,7.14
2017-11-27T22:21:47.904Z,7.19
2017-11-27T22:24:15.425Z,7.37
2017-11-27T22:26:42.894Z,7.33
2017-11-27T22:29:10.344Z,7.10
2017-11-27T22:31:37.816Z,7.26
2017-11-27T22:34:05.256Z,7.26
2017-11-27T22:36:32.732Z,7.25
2017-11-27T22:39:00.197Z,7.31
2017-11-27T22:41:27.666Z,7.22
2017-11-27T22:43:55.123Z,7.19
2017-11-27T22:46:22.603Z,7.15
2017-11-27T22:48:50.085Z,7.32
2017-11-27T22:51:17.550Z,7.20
2017-11-27T22:53:44.997Z,7.18
2017-11-27T22:56:12.475Z,7.17
2017-11-27T22:58:39.952Z,7.16
2017-11-27T23:01:07.477Z,7.19
2017-11-27T23:03:34.943Z,7.20
2017-11-27T23:06:02.448Z,7.11
2017-11-27T23:08:29.947Z,7.25
2017-11-27T23:10:57.464Z,7.25
2017-11-27T23:13:24.929Z,7.29
2017-11-27T23:15:52.370Z,7.44
2017-11-27T23:18:19.834Z,7.36
2017-11-27T23:20:47.319Z,7.45
2017-11-27T23:23:14.847Z,7.36
2017-11-27T23:25:42.306Z,7.38
2017-11-27T23:28:09.771Z,7.43
2017-11-27T23:30:37.298Z,7.48
2017-11-27T23:33:04.795Z,7.40
2017-11-27T23:35:32.271Z,7.35
2017-11-27T23:37:59.730Z,7.30
2017-11-27T23:40:27.214Z,7.43
2017-11-27T23:42:54.667Z,7.44
2017-11-27T23:45:22.145Z,7.42
2017-11-27T23:47:49.671Z,7.39
2017-11-27T23:50:17.152Z,7.38
2017-11-27T23:52:44.614Z,7.50
2017-11-27T23:55:12.094Z,7.60
2017-11-27T23:57:39.546Z,7.49
